createdAt,value
2024-01-28T00:02:04.103Z,101284.09
2024-01-28T00:04:34.570Z,101284.22
2024-01-28T00:07:07.661Z,101268.63
2024-01-28T00:09:38.031Z,101288.97
2024-01-28T00:12:08.927Z,101282.91
2024-01-28T00:14:40.608Z,101276.03
2024-01-28T00:17:12.180Z,101284.09
2024-01-28T00:19:42.882Z,101267.59
2024-01-28T00:22:15.619Z,101276.47
2024-01-28T00:24:46.492Z,101271.09
2024-01-28T00:27:16.786Z,101264.28
2024-01-28T00:29:46.881Z,101260.13
2024-01-28T00:32:16.921Z,101244.34
2024-01-28T00:34:50.073Z,101248.84
2024-01-28T00:37:25.425Z,101255.97
2024-01-28T00:39:55.880Z,101243.06
2024-01-28T00:42:26.872Z,101243.22
2024-01-28T00:44:57.037Z,101237.78
2024-01-28T00:47:29.019Z,101229.03
2024-01-28T00:49:59.140Z,101219.63
2024-01-28T00:52:31.883Z,101208.19
2024-01-28T00:55:01.948Z,101200.41
2024-01-28T00:57:32.116Z,101196.09
2024-01-28T01:00:02.422Z,101194.38
2024-01-28T01:02:32.516Z,101175.97
2024-01-28T01:05:02.596Z,101167.25
2024-01-28T01:07:35.161Z,101174.25
2024-01-28T01:10:05.764Z,101169.88
2024-01-28T01:12:35.781Z,101153.25
2024-01-28T01:15:05.828Z,101157.84
2024-01-28T01:17:35.941Z,101140.25
2024-01-28T01:20:06.049Z,101133.22
2024-01-28T01:22:38.692Z,101114.78
2024-01-28T01:25:09.234Z,101101.72
2024-01-28T01:27:39.325Z,101100.78
2024-01-28T01:30:10.374Z,101094.72
2024-01-28T01:32:42.168Z,101093.94
2024-01-28T01:35:12.924Z,101086.84
2024-01-28T01:37:45.709Z,101079.81
2024-01-28T01:40:17.635Z,101078.16
2024-01-28T01:42:47.778Z,101086.16
2024-01-28T01:45:17.903Z,101077.47
2024-01-28T01:47:49.761Z,101083.56
2024-01-28T01:50:19.918Z,101073.00
2024-01-28T01:52:54.345Z,101081.88
2024-01-28T01:55:24.346Z,101080.16
2024-01-28T01:57:54.388Z,101074.94
2024-01-28T02:00:24.962Z,101074.94
2024-01-28T02:02:55.201Z,101082.06
2024-01-28T02:05:25.888Z,101087.41
2024-01-28T02:07:58.598Z,101088.34
2024-01-28T02:10:28.512Z,101088.41
2024-01-28T02:12:58.528Z,101089.53
2024-01-28T02:15:28.453Z,101093.69
2024-01-28T02:17:58.579Z,101101.66
2024-01-28T02:20:28.554Z,101092.09
2024-01-28T02:23:01.523Z,101089.53
2024-01-28T02:25:34.646Z,101079.97
2024-01-28T02:28:04.763Z,101084.25
2024-01-28T02:30:34.873Z,101072.94
2024-01-28T02:33:05.164Z,101068.56
2024-01-28T02:35:36.616Z,101064.00
2024-01-28T02:38:06.662Z,101045.88
2024-01-28T02:40:39.312Z,101041.31
2024-01-28T02:43:09.318Z,101032.56
2024-01-28T02:45:39.436Z,101036.03
2024-01-28T02:48:09.971Z,101028.19
2024-01-28T02:50:39.957Z,101029.06
2024-01-28T02:53:10.690Z,101023.69
2024-01-28T02:55:43.255Z,101028.19
2024-01-28T02:58:13.226Z,101020.41
2024-01-28T03:00:43.268Z,101023.03
2024-01-28T03:03:13.393Z,101018.63
2024-01-28T03:05:43.451Z,101019.50
2024-01-28T03:08:13.378Z,101014.34
2024-01-28T03:10:46.146Z,101012.63
2024-01-28T03:13:16.614Z,101019.75
2024-01-28T03:15:47.248Z,101011.16
2024-01-28T03:18:17.422Z,101021.63
2024-01-28T03:20:47.415Z,101008.53
2024-01-28T03:23:18.067Z,101012.03
2024-01-28T03:25:50.996Z,101005.88
2024-01-28T03:28:21.362Z,100997.97
2024-01-28T03:30:51.369Z,100989.19
2024-01-28T03:33:22.020Z,100991.03
2024-01-28T03:35:52.033Z,100991.91
2024-01-28T03:38:22.211Z,100983.91
2024-01-28T03:40:54.919Z,100974.13
2024-01-28T03:43:24.841Z,100967.13
2024-01-28T03:45:54.695Z,100960.97
2024-01-28T03:48:25.001Z,100957.44
2024-01-28T03:50:55.010Z,100938.09
2024-01-28T03:53:24.980Z,100936.31
2024-01-28T03:55:57.500Z,100931.91
2024-01-28T03:58:27.465Z,100928.31
2024-01-28T04:00:57.530Z,100920.41
2024-01-28T04:03:27.696Z,100910.78
2024-01-28T04:05:57.700Z,100903.78
2024-01-28T04:08:27.637Z,100900.25
2024-01-28T04:11:00.272Z,100893.25
2024-01-28T04:13:30.329Z,100886.19
2024-01-28T04:16:00.348Z,100877.31
2024-01-28T04:18:30.405Z,100872.03
2024-01-28T04:21:00.438Z,100864.22
2024-01-28T04:23:30.409Z,100858.03
2024-01-28T04:26:03.195Z,100843.88
2024-01-28T04:28:33.263Z,100838.59
2024-01-28T04:31:04.264Z,100835.06
2024-01-28T04:33:34.283Z,100844.69
2024-01-28T04:36:04.387Z,100842.06
2024-01-28T04:38:35.455Z,100826.22
2024-01-28T04:41:08.230Z,100816.59
2024-01-28T04:43:39.823Z,100806.03
2024-01-28T04:46:10.139Z,100799.97
2024-01-28T04:48:40.136Z,100799.84
2024-01-28T04:51:10.181Z,100798.13
2024-01-28T04:53:40.171Z,100784.25
2024-01-28T04:56:14.008Z,100780.50
2024-01-28T04:58:44.005Z,100777.78
2024-01-28T05:01:13.989Z,100768.16
2024-01-28T05:03:44.089Z,100764.59
2024-01-28T05:06:14.117Z,100765.53
2024-01-28T05:08:44.796Z,100744.44
2024-01-28T05:11:17.396Z,100739.97
2024-01-28T05:13:47.368Z,100739.22
2024-01-28T05:16:17.246Z,100738.19
2024-01-28T05:18:47.286Z,100736.50
2024-01-28T05:21:17.291Z,100724.22
2024-01-28T05:23:47.294Z,100730.38
2024-01-28T05:26:19.838Z,100714.53
2024-01-28T05:28:50.629Z,100712.91
2024-01-28T05:31:20.517Z,100717.19
2024-01-28T05:33:50.470Z,100706.69
2024-01-28T05:36:23.475Z,100686.44
2024-01-28T05:38:53.430Z,100683.88
2024-01-28T05:41:26.443Z,100688.31
2024-01-28T05:43:56.408Z,100672.47
2024-01-28T05:46:26.400Z,100682.16
2024-01-28T05:48:56.946Z,100682.16
2024-01-28T05:51:28.561Z,100678.63
2024-01-28T05:53:58.982Z,100678.63
2024-01-28T05:56:31.490Z,100683.03
2024-01-28T05:59:01.395Z,100681.31
2024-01-28T06:01:31.332Z,100680.44
2024-01-28T06:04:01.507Z,100680.44
2024-01-28T06:06:31.565Z,100662.91
2024-01-28T06:09:01.486Z,100656.69
2024-01-28T06:11:34.276Z,100643.50
2024-01-28T06:14:04.144Z,100632.91
2024-01-28T06:16:34.097Z,100647.88
2024-01-28T06:19:04.183Z,100640.81
2024-01-28T06:21:35.207Z,100626.09
2024-01-28T06:24:05.093Z,100634.69
2024-01-28T06:26:40.045Z,100630.31
2024-01-28T06:29:09.981Z,100640.88
2024-01-28T06:31:39.898Z,100621.53
2024-01-28T06:34:09.899Z,100606.63
2024-01-28T06:36:39.956Z,100622.41
2024-01-28T06:39:10.336Z,100627.69
2024-01-28T06:41:43.495Z,100607.66
2024-01-28T06:44:13.582Z,100607.56
2024-01-28T06:46:43.657Z,100609.22
2024-01-28T06:49:16.777Z,100613.56
2024-01-28T06:51:48.691Z,100606.44
2024-01-28T06:54:20.189Z,100609.06
2024-01-28T06:56:52.947Z,100605.66
2024-01-28T06:59:22.859Z,100612.50
2024-01-28T07:01:52.937Z,100606.44
2024-01-28T07:04:23.064Z,100620.41
2024-01-28T07:06:53.186Z,100626.53
2024-01-28T07:09:23.178Z,100612.50
2024-01-28T07:11:55.731Z,100612.41
2024-01-28T07:14:26.482Z,100603.63
2024-01-28T07:16:56.708Z,100602.72
2024-01-28T07:19:26.649Z,100595.88
2024-01-28T07:21:56.635Z,100602.63
2024-01-28T07:24:26.690Z,100591.22
2024-01-28T07:27:00.078Z,100602.56
2024-01-28T07:29:30.057Z,100610.38
2024-01-28T07:32:00.130Z,100604.25
2024-01-28T07:34:30.665Z,100614.75
2024-01-28T07:37:00.816Z,100616.53
2024-01-28T07:39:30.943Z,100605.97
2024-01-28T07:42:04.073Z,100612.97
2024-01-28T07:44:34.156Z,100606.72
2024-01-28T07:47:05.118Z,100614.66
2024-01-28T07:49:35.488Z,100603.47
2024-01-28T07:52:05.612Z,100612.00
2024-01-28T07:54:35.689Z,100602.41
2024-01-28T07:57:08.484Z,100605.81
2024-01-28T07:59:38.517Z,100608.44
2024-01-28T08:02:09.164Z,100607.50
2024-01-28T08:04:39.547Z,100604.84
2024-01-28T08:07:09.572Z,100594.31
2024-01-28T08:09:39.594Z,100601.31
2024-01-28T08:12:12.566Z,100595.25
2024-01-28T08:14:42.657Z,100590.84
2024-01-28T08:17:14.988Z,100586.38
2024-01-28T08:19:45.117Z,100591.66
2024-01-28T08:22:15.659Z,100586.38
2024-01-28T08:24:45.802Z,100593.38
2024-01-28T08:27:19.025Z,100589.88
2024-01-28T08:29:52.258Z,100599.53
2024-01-28T08:32:23.351Z,100583.75
2024-01-28T08:34:53.442Z,100588.09
2024-01-28T08:37:24.697Z,100577.56
2024-01-28T08:39:55.153Z,100571.34
2024-01-28T08:42:29.067Z,100559.94
2024-01-28T08:44:59.054Z,100564.19
2024-01-28T08:47:31.561Z,100552.78
2024-01-28T08:50:02.858Z,100550.25
2024-01-28T08:52:33.047Z,100541.53
2024-01-28T08:55:03.069Z,100539.84
2024-01-28T08:57:36.041Z,100546.75
2024-01-28T09:00:06.801Z,100529.72
2024-01-28T09:02:37.747Z,100518.16
2024-01-28T09:05:09.680Z,100534.75
2024-01-28T09:07:40.052Z,100509.22
2024-01-28T09:10:11.106Z,100483.09
2024-01-28T09:12:44.467Z,100504.72
2024-01-28T09:15:14.881Z,100491.31
2024-01-28T09:17:45.454Z,100516.69
2024-01-28T09:20:15.725Z,100512.13
2024-01-28T09:22:45.794Z,100523.34
2024-01-28T09:25:15.963Z,100520.53
2024-01-28T09:27:50.373Z,100512.56
2024-01-28T09:30:20.705Z,100528.31
2024-01-28T09:32:52.484Z,100530.09
2024-01-28T09:35:22.685Z,100536.41
2024-01-28T09:37:52.831Z,100543.25
2024-01-28T09:40:22.957Z,100549.41
2024-01-28T09:43:09.005Z,100556.75
2024-01-28T09:45:39.050Z,100552.88
2024-01-28T09:48:12.697Z,100543.16
2024-01-28T09:50:43.940Z,100563.09
2024-01-28T09:53:14.866Z,100554.09
2024-01-28T09:55:45.157Z,100543.44
2024-01-28T09:58:17.992Z,100542.09
2024-01-28T10:00:49.097Z,100527.81
2024-01-28T10:03:19.235Z,100524.16
2024-01-28T10:05:51.571Z,100518.53
2024-01-28T10:08:22.348Z,100514.88
2024-01-28T10:10:52.474Z,100503.97
2024-01-28T10:13:25.272Z,100514.47
2024-01-28T10:16:00.076Z,100541.72
2024-01-28T10:18:30.720Z,100536.44
2024-01-28T10:21:00.978Z,100523.22
2024-01-28T10:23:31.130Z,100532.25
2024-01-28T10:26:02.088Z,100540.19
2024-01-28T10:28:34.956Z,100547.00
2024-01-28T10:31:05.512Z,100548.69
2024-01-28T10:33:35.840Z,100547.00
2024-01-28T10:36:08.056Z,100560.13
2024-01-28T10:38:39.217Z,100549.56
2024-01-28T10:41:09.360Z,100549.31
2024-01-28T10:43:43.753Z,100544.78
2024-01-28T10:46:17.878Z,100532.53
2024-01-28T10:48:52.831Z,100534.38
2024-01-28T10:51:23.599Z,100530.47
2024-01-28T10:53:54.603Z,100516.25
2024-01-28T10:56:24.911Z,100510.72
2024-01-28T10:58:57.671Z,100498.63
2024-01-28T11:01:28.156Z,100497.59
2024-01-28T11:04:01.818Z,100501.09
2024-01-28T11:06:33.627Z,100502.78
2024-01-28T11:09:05.017Z,100485.25
2024-01-28T11:11:35.541Z,100487.03
2024-01-28T11:14:12.763Z,100484.28
2024-01-28T11:16:45.618Z,100484.66
2024-01-28T11:19:18.688Z,100482.06
2024-01-28T11:21:54.708Z,100482.75
2024-01-28T11:24:25.331Z,100474.56
2024-01-28T11:27:00.425Z,100479.34
2024-01-28T11:29:39.262Z,100464.31
2024-01-28T11:32:11.205Z,100448.44
2024-01-28T11:34:41.484Z,100446.03
2024-01-28T11:37:11.579Z,100456.06
2024-01-28T11:39:47.226Z,100431.81
2024-01-28T11:42:17.737Z,100425.13
2024-01-28T11:44:50.981Z,100415.13
2024-01-28T11:47:24.166Z,100403.03
2024-01-28T11:49:54.359Z,100391.59
2024-01-28T11:52:25.389Z,100396.50
2024-01-28T11:54:55.735Z,100412.47
2024-01-28T11:57:25.898Z,100372.91
2024-01-28T11:59:58.651Z,100355.50
2024-01-28T12:02:29.045Z,100371.22
2024-01-28T12:04:59.764Z,100354.44
2024-01-28T12:07:29.991Z,100352.66
2024-01-28T12:10:00.669Z,100334.22
2024-01-28T12:12:35.994Z,100337.13
2024-01-28T12:15:09.625Z,100329.13
2024-01-28T12:17:40.226Z,100314.09
2024-01-28T12:20:11.328Z,100297.06
2024-01-28T12:22:41.876Z,100283.38
2024-01-28T12:25:13.451Z,100315.22
2024-01-28T12:27:44.532Z,100288.75
2024-01-28T12:30:19.327Z,100283.63
2024-01-28T12:32:49.732Z,100299.03
2024-01-28T12:35:19.812Z,100252.72
2024-01-28T12:37:49.907Z,100278.38
2024-01-28T12:40:20.015Z,100279.88
2024-01-28T12:42:50.103Z,100275.22
2024-01-28T12:45:22.796Z,100271.41
2024-01-28T12:47:52.846Z,100268.00
2024-01-28T12:50:22.829Z,100252.84
2024-01-28T12:52:53.171Z,100242.97
2024-01-28T12:55:23.453Z,100243.06
2024-01-28T12:57:53.552Z,100233.47
2024-01-28T13:00:26.977Z,100207.00
2024-01-28T13:02:56.899Z,100188.50
2024-01-28T13:05:27.083Z,100175.50
2024-01-28T13:07:57.129Z,100215.81
2024-01-28T13:10:27.359Z,100206.56
2024-01-28T13:12:57.463Z,100180.91
2024-01-28T13:15:30.434Z,100194.91
2024-01-28T13:18:00.474Z,100186.72
2024-01-28T13:20:30.860Z,100195.63
2024-01-28T13:23:01.118Z,100187.56
2024-01-28T13:25:31.127Z,100172.13
2024-01-28T13:28:01.737Z,100163.19
2024-01-28T13:30:34.486Z,100170.19
2024-01-28T13:33:05.128Z,100162.00
2024-01-28T13:35:35.261Z,100157.75
2024-01-28T13:38:05.610Z,100192.06
2024-01-28T13:40:35.953Z,100203.19
2024-01-28T13:43:08.842Z,100191.09
2024-01-28T13:45:41.631Z,100180.59
2024-01-28T13:48:12.246Z,100191.91
2024-01-28T13:50:42.566Z,100163.53
2024-01-28T13:53:13.400Z,100170.56
2024-01-28T13:55:43.452Z,100158.50
2024-01-28T13:58:13.576Z,100172.25
2024-01-28T14:00:46.518Z,100168.09
2024-01-28T14:03:17.953Z,100145.16
2024-01-28T14:05:48.426Z,100134.78
2024-01-28T14:08:18.732Z,100140.97
2024-01-28T14:10:48.746Z,100126.34
2024-01-28T14:13:18.794Z,100141.69
2024-01-28T14:15:51.678Z,100137.81
2024-01-28T14:18:24.831Z,100123.56
2024-01-28T14:20:55.318Z,100143.38
2024-01-28T14:23:26.091Z,100118.00
2024-01-28T14:26:04.899Z,100147.25
2024-01-28T14:28:35.096Z,100149.78
2024-01-28T14:31:08.125Z,100127.91
2024-01-28T14:33:38.562Z,100132.09
2024-01-28T14:36:09.412Z,100146.22
2024-01-28T14:38:40.011Z,100139.88
2024-01-28T14:41:11.247Z,100128.06
2024-01-28T14:43:42.334Z,100144.22
2024-01-28T14:46:16.130Z,100156.03
2024-01-28T14:48:46.590Z,100160.75
2024-01-28T14:51:17.146Z,100144.41
2024-01-28T14:53:47.410Z,100147.50
2024-01-28T14:56:17.684Z,100125.53
2024-01-28T14:58:47.910Z,100142.19
2024-01-28T15:01:20.928Z,100125.72
2024-01-28T15:03:51.162Z,100136.25
2024-01-28T15:06:22.414Z,100168.31
2024-01-28T15:08:52.839Z,100170.25
2024-01-28T15:11:30.506Z,100150.97
2024-01-28T15:14:00.532Z,100154.84
2024-01-28T15:16:33.293Z,100168.41
2024-01-28T15:19:03.798Z,100156.69
2024-01-28T15:21:34.001Z,100157.13
2024-01-28T15:24:04.851Z,100164.34
2024-01-28T15:26:35.053Z,100140.66
2024-01-28T15:29:05.271Z,100161.59
2024-01-28T15:31:37.929Z,100186.75
2024-01-28T15:34:08.115Z,100181.25
2024-01-28T15:36:38.449Z,100159.38
2024-01-28T15:39:08.711Z,100161.00
2024-01-28T15:41:38.906Z,100160.25
2024-01-28T15:44:09.192Z,100151.88
2024-01-28T15:46:41.857Z,100154.63
2024-01-28T15:49:13.184Z,100162.03
2024-01-28T15:51:43.387Z,100191.50
2024-01-28T15:54:13.683Z,100215.03
2024-01-28T15:56:43.649Z,100205.81
2024-01-28T15:59:13.863Z,100237.22
2024-01-28T16:01:46.827Z,100229.06
2024-01-28T16:04:17.159Z,100219.91
2024-01-28T16:06:47.747Z,100220.66
2024-01-28T16:09:18.039Z,100227.22
2024-01-28T16:11:48.075Z,100232.31
2024-01-28T16:14:20.165Z,100209.44
2024-01-28T16:16:53.055Z,100208.78
2024-01-28T16:19:23.757Z,100207.47
2024-01-28T16:21:54.058Z,100210.94
2024-01-28T16:24:25.168Z,100225.44
2024-01-28T16:26:57.077Z,100218.41
2024-01-28T16:29:27.871Z,100199.53
2024-01-28T16:32:01.377Z,100202.19
2024-01-28T16:34:32.116Z,100192.56
2024-01-28T16:37:02.288Z,100193.28
2024-01-28T16:39:36.476Z,100192.16
2024-01-28T16:42:06.725Z,100184.66
2024-01-28T16:44:39.173Z,100163.66
2024-01-28T16:47:13.002Z,100150.66
2024-01-28T16:49:45.686Z,100156.09
2024-01-28T16:52:20.414Z,100149.50
2024-01-28T16:54:51.488Z,100152.63
2024-01-28T16:57:21.902Z,100145.41
2024-01-28T16:59:52.154Z,100134.78
2024-01-28T17:02:27.959Z,100136.88
2024-01-28T17:04:59.811Z,100133.47
2024-01-28T17:07:31.028Z,100131.47
2024-01-28T17:10:01.661Z,100135.75
2024-01-28T17:12:32.064Z,100133.03
2024-01-28T17:15:02.897Z,100106.00
2024-01-28T17:17:37.661Z,100110.53
2024-01-28T17:20:10.277Z,100098.44
2024-01-28T17:22:40.688Z,100101.13
2024-01-28T17:25:14.660Z,100090.16
2024-01-28T17:27:45.269Z,100091.72
2024-01-28T17:30:16.730Z,100090.66
2024-01-28T17:32:51.806Z,100095.72
2024-01-28T17:35:22.375Z,100080.75
2024-01-28T17:37:52.735Z,100078.81
2024-01-28T17:40:23.379Z,100093.31
2024-01-28T17:42:53.581Z,100093.09
2024-01-28T17:45:25.542Z,100092.41
2024-01-28T17:48:00.013Z,100080.84
2024-01-28T17:50:30.443Z,100084.00
2024-01-28T17:53:02.570Z,100077.63
2024-01-28T17:55:33.291Z,100070.78
2024-01-28T17:58:04.020Z,100084.81
2024-01-28T18:00:34.442Z,100085.81
2024-01-28T18:03:07.863Z,100074.97
2024-01-28T18:05:38.117Z,100087.53
2024-01-28T18:08:09.315Z,100095.03
2024-01-28T18:10:40.349Z,100090.84
2024-01-28T18:13:10.881Z,100080.66
2024-01-28T18:15:41.456Z,100105.84
2024-01-28T18:18:15.403Z,100100.75
2024-01-28T18:20:48.122Z,100108.72
2024-01-28T18:23:19.854Z,100093.81
2024-01-28T18:25:56.246Z,100092.31
2024-01-28T18:28:27.942Z,100105.41
2024-01-28T18:31:00.966Z,100123.03
2024-01-28T18:33:36.866Z,100122.63
2024-01-28T18:36:08.809Z,100146.91
2024-01-28T18:38:39.546Z,100148.72
2024-01-28T18:41:10.682Z,100158.66
2024-01-28T18:43:42.333Z,100154.31
2024-01-28T18:46:13.046Z,100163.00
2024-01-28T18:48:46.192Z,100155.25
2024-01-28T18:51:17.842Z,100176.44
2024-01-28T18:53:48.489Z,100163.56
2024-01-28T18:56:20.358Z,100161.53
2024-01-28T18:58:51.567Z,100174.19
2024-01-28T19:01:23.776Z,100160.28
2024-01-28T19:03:58.087Z,100172.97
2024-01-28T19:06:31.286Z,100174.75
2024-01-28T19:09:01.841Z,100173.25
2024-01-28T19:11:33.963Z,100186.66
2024-01-28T19:14:04.692Z,100206.91
2024-01-28T19:16:37.832Z,100216.03
2024-01-28T19:19:11.555Z,100223.28
2024-01-28T19:21:42.276Z,100232.59
2024-01-28T19:24:12.873Z,100237.75
2024-01-28T19:26:43.430Z,100250.78
2024-01-28T19:29:16.770Z,100249.75
2024-01-28T19:31:47.502Z,100260.72
2024-01-28T19:34:22.891Z,100271.00
2024-01-28T19:36:54.178Z,100285.09
2024-01-28T19:39:29.734Z,100296.00
2024-01-28T19:42:01.052Z,100304.75
2024-01-28T19:44:36.180Z,100322.03
2024-01-28T19:47:12.504Z,100331.88
2024-01-28T19:49:47.109Z,100340.00
2024-01-28T19:52:19.860Z,100346.88
2024-01-28T19:54:50.930Z,100353.34
2024-01-28T19:57:21.585Z,100364.25
2024-01-28T19:59:55.030Z,100374.53
2024-01-28T20:02:25.592Z,100366.44
2024-01-28T20:04:58.978Z,100381.56
2024-01-28T20:07:30.956Z,100393.75
2024-01-28T20:10:07.594Z,100403.84
2024-01-28T20:12:40.564Z,100412.91
2024-01-28T20:15:12.240Z,100428.78
2024-01-28T20:17:42.848Z,100431.53
2024-01-28T20:20:20.603Z,100438.94
2024-01-28T20:22:53.971Z,100448.00
2024-01-28T20:25:24.845Z,100454.78
2024-01-28T20:27:56.362Z,100472.47
2024-01-28T20:30:34.781Z,100486.63
2024-01-28T20:33:08.235Z,100491.09
2024-01-28T20:35:41.715Z,100489.22
2024-01-28T20:38:12.860Z,100498.13
2024-01-28T20:40:44.623Z,100514.88
2024-01-28T20:43:15.575Z,100540.22
2024-01-28T20:45:50.782Z,100541.75
2024-01-28T20:48:23.767Z,100563.28
2024-01-28T20:50:57.448Z,100557.28
2024-01-28T20:53:29.933Z,100554.75
2024-01-28T20:56:04.173Z,100563.78
2024-01-28T20:58:37.060Z,100573.94
2024-01-28T21:01:10.679Z,100575.81
2024-01-28T21:03:41.951Z,100584.13
2024-01-28T21:06:19.779Z,100583.41
2024-01-28T21:08:54.141Z,100599.38
2024-01-28T21:11:28.756Z,100604.72
2024-01-28T21:14:05.733Z,100603.75
2024-01-28T21:16:36.737Z,100603.34
2024-01-28T21:19:09.802Z,100608.25
2024-01-28T21:21:47.087Z,100603.13
2024-01-28T21:24:20.161Z,100618.72
2024-01-28T21:26:55.738Z,100611.31
2024-01-28T21:29:29.852Z,100622.69
2024-01-28T21:32:02.149Z,100634.34
2024-01-28T21:34:33.303Z,100643.06
2024-01-28T21:37:09.745Z,100635.72
2024-01-28T21:39:41.485Z,100649.69
2024-01-28T21:42:12.692Z,100668.34
2024-01-28T21:44:50.549Z,100667.41
2024-01-28T21:47:24.790Z,100667.00
2024-01-28T21:49:55.740Z,100657.38
2024-01-28T21:52:30.892Z,100664.78
2024-01-28T21:55:01.910Z,100665.56
2024-01-28T21:57:44.125Z,100676.25
2024-01-28T22:00:15.953Z,100685.63
2024-01-28T22:02:47.128Z,100688.50
2024-01-28T22:05:18.907Z,100717.56
2024-01-28T22:07:52.361Z,100727.53
2024-01-28T22:10:23.001Z,100748.09
2024-01-28T22:13:03.742Z,100748.38
2024-01-28T22:15:35.906Z,100754.56
2024-01-28T22:18:13.762Z,100778.38
2024-01-28T22:20:44.709Z,100787.53
2024-01-28T22:23:18.739Z,100803.91
2024-01-28T22:25:51.286Z,100799.63
2024-01-28T22:28:22.766Z,100810.88
2024-01-28T22:30:56.364Z,100825.00
2024-01-28T22:33:30.892Z,100845.22
2024-01-28T22:36:05.307Z,100875.25
2024-01-28T22:38:42.370Z,100867.00
2024-01-28T22:41:13.343Z,100884.41
2024-01-28T22:43:45.141Z,100884.78
2024-01-28T22:46:15.958Z,100894.13
2024-01-28T22:48:46.575Z,100892.13
2024-01-28T22:51:17.546Z,100910.91
2024-01-28T22:53:51.209Z,100924.53
2024-01-28T22:56:21.730Z,100938.47
2024-01-28T22:58:53.939Z,100948.41
2024-01-28T23:01:27.250Z,100954.19
2024-01-28T23:04:00.948Z,100959.97
2024-01-28T23:06:31.803Z,100971.94
2024-01-28T23:09:05.027Z,100981.69
2024-01-28T23:11:36.249Z,100977.81
2024-01-28T23:14:06.812Z,100994.94
2024-01-28T23:16:37.300Z,100991.19
2024-01-28T23:19:08.420Z,101021.41
2024-01-28T23:21:39.065Z,101026.44
2024-01-28T23:24:12.468Z,101032.78
2024-01-28T23:26:43.126Z,101037.31
2024-01-28T23:29:13.935Z,101054.53
2024-01-28T23:31:44.704Z,101063.69
2024-01-28T23:34:16.300Z,101076.13
2024-01-28T23:36:46.954Z,101071.25
2024-01-28T23:39:21.533Z,101084.19
2024-01-28T23:41:51.917Z,101085.44
2024-01-28T23:44:22.132Z,101084.81
2024-01-28T23:46:52.664Z,101086.97
2024-01-28T23:49:23.498Z,101094.03
2024-01-28T23:51:53.694Z,101092.56
2024-01-28T23:54:26.661Z,101086.03
2024-01-28T23:56:57.411Z,101101.91
2024-01-28T23:59:27.797Z,101098.66
